Terminal Aerodrome Forecast
Issued by NWS

Home | Current Version | Previous Version | Text Only | Print | Product List | Glossary On
Versions: 1 2 3 4 5 6 7 8 9 10 11 12 13 14 15
000
FTUS42 KTBW 011737
TAFLAL
TAF
KLAL 011737Z 0118/0218 29008KT P6SM SCT040
     FM020300 30004KT P6SM FEW200
     FM020900 VRB03KT 3SM BR FEW005 SCT200
     FM021100 VRB03KT 1SM BCFG SCT005
     FM021400 05005KT P6SM SCT025 BKN200=

USA.gov is the U.S. government's official web portal to all federal, state and local government web resources and services.